Time;durP1;ratioP1;P1;durP2;ratioP2;P2;SDS_P1;SDS_P2;PMS_P1;PMS_P2;Temp;Humidity;BMP_temperature;BMP_pressure;BME280_temperature;BME280_humidity;BME280_pressure;Samples;Min_cycle;Max_cycle;Signal;HPM_P1;HPM_P2
2021/01/15 00:00:12;;;;;;;8.00;4.30;;;1.10;99.90;;;;;;5010411;28;20870;-54
2021/01/15 00:02:37;;;;;;;8.82;4.10;;;1.10;99.90;;;;;;5012252;28;20458;-54
2021/01/15 00:05:03;;;;;;;10.97;4.17;;;3.00;99.90;;;;;;5009597;28;20420;-54
2021/01/15 00:07:30;;;;;;;8.23;4.00;;;1.00;99.90;;;;;;5012115;28;20435;-54
2021/01/15 00:09:56;;;;;;;8.57;4.30;;;3.40;99.90;;;;;;5009925;28;20405;-54
2021/01/15 00:12:22;;;;;;;8.10;3.88;;;0.90;99.90;;;;;;5011232;28;20762;-54
2021/01/15 00:14:47;;;;;;;7.80;3.72;;;0.90;99.90;;;;;;5010554;28;20412;-54
2021/01/15 00:17:13;;;;;;;7.05;4.20;;;0.90;99.90;;;;;;5010824;28;20388;-54
2021/01/15 00:19:38;;;;;;;9.07;3.83;;;0.80;99.90;;;;;;5010559;28;20906;-54
2021/01/15 00:22:04;;;;;;;7.35;4.03;;;0.80;99.90;;;;;;5010677;28;20805;-54
2021/01/15 00:24:30;;;;;;;8.30;4.18;;;0.90;99.90;;;;;;5010460;28;20393;-54
2021/01/15 00:26:55;;;;;;;7.50;4.00;;;3.10;99.90;;;;;;5011379;28;20427;-54
2021/01/15 00:29:21;;;;;;;10.10;3.95;;;0.90;99.90;;;;;;5010187;28;20824;-54
2021/01/15 00:31:46;;;;;;;8.40;3.60;;;0.80;99.90;;;;;;5012155;28;20499;-54
2021/01/15 00:34:13;;;;;;;7.60;3.60;;;0.80;99.90;;;;;;5009273;28;21012;-54
2021/01/15 00:36:41;;;;;;;7.70;3.42;;;0.80;99.90;;;;;;5011371;28;20389;-54
2021/01/15 00:39:08;;;;;;;8.05;3.58;;;3.50;99.90;;;;;;5009549;28;20397;-54
2021/01/15 00:41:38;;;;;;;8.60;3.75;;;0.80;99.90;;;;;;5010861;28;20389;-54
2021/01/15 00:44:05;;;;;;;6.88;3.50;;;1.20;99.90;;;;;;5008605;28;20870;-54
2021/01/15 00:46:31;;;;;;;8.00;3.55;;;0.70;99.90;;;;;;5009603;28;20743;-54
2021/01/15 00:49:06;;;;;;;8.25;3.47;;;0.70;99.90;;;;;;5009094;28;20484;-54
2021/01/15 00:51:35;;;;;;;10.13;3.60;;;0.70;99.90;;;;;;5011254;28;20384;-54
2021/01/15 00:54:03;;;;;;;7.10;3.30;;;2.40;99.90;;;;;;5009599;28;20790;-54
2021/01/15 00:56:28;;;;;;;7.47;3.50;;;0.90;99.90;;;;;;5010961;28;20381;-54
2021/01/15 00:58:54;;;;;;;9.23;3.33;;;0.90;99.90;;;;;;5010904;28;20730;-54
2021/01/15 01:01:22;;;;;;;7.23;3.63;;;0.90;99.90;;;;;;5009968;28;20415;-54
2021/01/15 01:03:49;;;;;;;5.88;3.00;;;0.90;99.90;;;;;;5010638;28;20412;-54
2021/01/15 01:06:19;;;;;;;8.00;3.40;;;0.80;99.90;;;;;;5009299;28;20392;-54
2021/01/15 01:08:45;;;;;;;7.72;3.55;;;0.90;99.90;;;;;;4997659;28;20400;-54
2021/01/15 01:11:22;;;;;;;8.68;4.00;;;2.80;99.90;;;;;;5010130;28;20385;-54
2021/01/15 01:13:49;;;;;;;7.00;3.15;;;3.50;99.90;;;;;;5011114;28;20941;-54
2021/01/15 01:16:16;;;;;;;7.80;3.50;;;0.90;99.90;;;;;;5010505;28;20389;-54
2021/01/15 01:18:43;;;;;;;7.80;3.20;;;0.90;99.90;;;;;;5011115;28;20388;-54
2021/01/15 01:21:10;;;;;;;7.63;3.40;;;0.80;99.90;;;;;;5010267;28;20495;-54
2021/01/15 01:23:35;;;;;;;8.43;3.20;;;3.60;99.90;;;;;;5010191;28;20408;-54
2021/01/15 01:26:01;;;;;;;7.65;3.55;;;0.90;99.90;;;;;;5010373;28;20369;-54
2021/01/15 01:28:27;;;;;;;7.43;3.15;;;1.00;99.90;;;;;;5011002;28;20492;-54
2021/01/15 01:30:53;;;;;;;7.22;3.35;;;2.10;99.90;;;;;;5010517;28;20495;-54
2021/01/15 01:33:19;;;;;;;7.23;3.40;;;0.90;99.90;;;;;;5010716;28;20388;-54
2021/01/15 01:35:44;;;;;;;7.03;3.40;;;3.70;99.90;;;;;;5010961;28;20397;-54
2021/01/15 01:38:10;;;;;;;6.07;3.00;;;3.00;99.90;;;;;;5009871;28;20395;-54
2021/01/15 01:40:36;;;;;;;5.82;3.03;;;3.80;99.90;;;;;;5010706;28;20897;-54
2021/01/15 01:43:02;;;;;;;6.85;3.55;;;3.00;99.90;;;;;;5009793;28;20391;-54
2021/01/15 01:45:27;;;;;;;7.43;3.25;;;1.00;99.90;;;;;;5010696;28;20381;-54
2021/01/15 01:47:54;;;;;;;7.97;3.20;;;0.90;99.90;;;;;;5010098;28;20396;-54
2021/01/15 01:50:21;;;;;;;7.28;3.80;;;0.90;99.90;;;;;;5010361;28;20442;-54
2021/01/15 01:52:47;;;;;;;6.30;3.65;;;1.00;99.90;;;;;;5010679;28;20392;-54
2021/01/15 01:55:14;;;;;;;8.23;3.97;;;3.30;99.90;;;;;;5009206;28;20400;-54
2021/01/15 01:57:40;;;;;;;6.28;3.80;;;1.10;99.90;;;;;;5010289;28;20405;-54
2021/01/15 02:00:07;;;;;;;7.00;3.80;;;1.00;99.90;;;;;;5009783;28;20431;-54
2021/01/15 02:02:32;;;;;;;7.57;3.65;;;0.90;99.90;;;;;;5010627;28;20420;-54
2021/01/15 02:04:58;;;;;;;10.85;3.75;;;0.90;99.90;;;;;;5009429;28;20854;-54
2021/01/15 02:07:24;;;;;;;8.43;4.17;;;2.50;99.90;;;;;;5010499;28;20388;-54
2021/01/15 02:10:00;;;;;;;9.17;3.70;;;0.80;99.90;;;;;;5010257;28;20388;-54
2021/01/15 02:12:28;;;;;;;8.20;3.80;;;0.80;99.90;;;;;;5010578;28;20474;-54
2021/01/15 02:15:37;;;;;;;7.72;3.95;;;0.80;99.90;;;;;;5009554;28;20411;-54
2021/01/15 02:18:32;;;;;;;7.33;4.00;;;0.80;99.90;;;;;;4948281;28;20513;-54
2021/01/15 02:21:06;;;;;;;6.75;3.45;;;0.80;99.90;;;;;;5009280;28;20413;-54
2021/01/15 02:23:38;;;;;;;7.28;3.80;;;0.70;99.90;;;;;;5009884;28;20385;-54
2021/01/15 02:26:04;;;;;;;14.18;4.53;;;0.70;99.90;;;;;;5008777;28;20399;-54
2021/01/15 02:28:42;;;;;;;7.70;4.65;;;0.70;99.90;;;;;;5006613;28;20393;-54
2021/01/15 02:31:38;;;;;;;8.60;5.00;;;0.60;99.90;;;;;;4999627;28;20396;-54
2021/01/15 02:34:34;;;;;;;10.90;5.15;;;0.60;99.90;;;;;;5010729;28;20389;-54
2021/01/15 02:37:16;;;;;;;7.20;4.45;;;0.60;99.90;;;;;;5012802;28;20397;-54
2021/01/15 02:40:00;;;;;;;8.55;4.80;;;2.70;99.90;;;;;;5014218;28;20877;-54
2021/01/15 02:42:28;;;;;;;7.60;4.25;;;3.60;99.90;;;;;;5014141;28;20411;-54
2021/01/15 02:44:55;;;;;;;7.88;4.40;;;0.70;99.90;;;;;;5013585;28;20373;-54
2021/01/15 02:47:28;;;;;;;12.32;5.30;;;0.70;99.90;;;;;;5013927;28;20751;-54
2021/01/15 02:49:56;;;;;;;8.60;4.95;;;0.70;99.90;;;;;;5013570;28;20435;-54
2021/01/15 02:52:22;;;;;;;8.25;4.80;;;0.70;99.90;;;;;;5013744;28;20401;-54
2021/01/15 02:54:48;;;;;;;10.03;5.43;;;0.70;99.90;;;;;;5013879;28;20377;-54
2021/01/15 02:57:13;;;;;;;8.47;4.70;;;0.60;99.90;;;;;;5012965;28;20459;-54
2021/01/15 02:59:39;;;;;;;7.43;4.13;;;0.60;99.90;;;;;;5013895;28;20419;-54
2021/01/15 03:02:08;;;;;;;7.70;3.93;;;2.60;99.90;;;;;;5013229;28;20483;-54
2021/01/15 03:04:55;;;;;;;9.93;4.55;;;2.50;99.90;;;;;;5013757;28;20389;-54
2021/01/15 03:07:23;;;;;;;7.85;3.92;;;0.50;99.90;;;;;;5013678;28;20915;-54
2021/01/15 03:09:52;;;;;;;8.77;4.80;;;0.40;99.90;;;;;;5013732;28;20408;-54
2021/01/15 03:12:21;;;;;;;11.30;4.73;;;1.80;99.90;;;;;;5011300;28;20420;-54
2021/01/15 03:14:49;;;;;;;9.20;4.30;;;0.30;99.90;;;;;;5013604;28;20447;-54
2021/01/15 03:17:17;;;;;;;8.38;4.65;;;0.30;99.90;;;;;;5012004;28;20992;-54
2021/01/15 03:19:44;;;;;;;8.23;4.20;;;0.20;99.90;;;;;;5011990;28;20420;-54
2021/01/15 03:22:18;;;;;;;8.75;4.93;;;1.30;99.90;;;;;;5011099;28;20503;-54
2021/01/15 03:24:52;;;;;;;8.75;4.45;;;0.30;99.90;;;;;;5012920;28;20477;-54
2021/01/15 03:27:19;;;;;;;8.43;4.10;;;0.30;99.90;;;;;;5012879;28;20409;-54
2021/01/15 03:29:45;;;;;;;7.70;4.20;;;0.20;99.90;;;;;;5011977;28;20412;-54
2021/01/15 03:32:11;;;;;;;8.93;4.40;;;0.20;99.90;;;;;;5012491;28;20473;-54
2021/01/15 03:34:36;;;;;;;9.10;4.10;;;0.10;99.90;;;;;;5013256;28;20396;-54
2021/01/15 03:37:02;;;;;;;7.47;4.13;;;3.00;99.90;;;;;;5010815;28;20409;-54
2021/01/15 03:39:28;;;;;;;8.52;4.70;;;0.20;99.90;;;;;;5012704;28;20463;-54
2021/01/15 03:41:53;;;;;;;9.83;4.50;;;0.30;99.90;;;;;;5011133;28;20433;-54
2021/01/15 03:44:19;;;;;;;7.80;4.38;;;0.20;99.90;;;;;;5012349;28;20392;-54
2021/01/15 03:46:44;;;;;;;9.23;4.43;;;0.10;99.90;;;;;;5011971;28;20384;-54
2021/01/15 03:49:10;;;;;;;7.90;4.20;;;0.10;99.90;;;;;;5010471;28;20415;-54
2021/01/15 03:51:38;;;;;;;7.63;4.50;;;0.10;99.90;;;;;;5012739;28;20389;-54
2021/01/15 03:54:04;;;;;;;7.38;4.38;;;0.10;99.90;;;;;;5010120;28;20480;-54
2021/01/15 03:56:30;;;;;;;8.90;4.40;;;0.00;99.90;;;;;;5012465;28;20507;-54
2021/01/15 03:58:55;;;;;;;9.07;4.55;;;0.00;99.90;;;;;;5010334;28;20408;-54
2021/01/15 04:01:21;;;;;;;8.40;4.60;;;0.10;99.90;;;;;;5012011;28;20436;-54
2021/01/15 04:03:47;;;;;;;7.90;4.33;;;2.10;99.90;;;;;;5011149;28;20444;-54
2021/01/15 04:06:12;;;;;;;8.98;5.28;;;2.60;99.90;;;;;;5011790;28;20399;-54
2021/01/15 04:08:38;;;;;;;9.70;4.97;;;0.00;99.90;;;;;;5010654;28;20419;-54
2021/01/15 04:11:04;;;;;;;8.85;4.30;;;0.00;99.90;;;;;;5011516;28;20435;-54
2021/01/15 04:13:30;;;;;;;12.13;5.30;;;0.00;99.90;;;;;;5010943;28;20417;-54
2021/01/15 04:15:55;;;;;;;10.00;4.90;;;2.50;99.90;;;;;;5011344;28;20786;-54
2021/01/15 04:18:21;;;;;;;7.97;4.60;;;-0.10;99.90;;;;;;5010663;28;20756;-54
2021/01/15 04:20:46;;;;;;;9.45;5.03;;;2.00;99.90;;;;;;5012283;28;20981;-54
2021/01/15 04:23:12;;;;;;;10.33;4.93;;;-0.10;99.90;;;;;;5010866;28;21050;-54
2021/01/15 04:25:38;;;;;;;10.18;5.30;;;-0.20;99.90;;;;;;5010542;28;20412;-54
2021/01/15 04:28:04;;;;;;;9.85;5.43;;;-0.20;99.90;;;;;;5009731;28;20401;-54
2021/01/15 04:30:29;;;;;;;9.02;5.50;;;-0.20;99.90;;;;;;5011533;28;20388;-54
2021/01/15 04:32:55;;;;;;;9.60;5.00;;;-0.20;99.90;;;;;;5011565;28;20393;-54
2021/01/15 04:35:20;;;;;;;8.40;4.80;;;-0.30;99.90;;;;;;5012220;28;20385;-54
2021/01/15 04:37:47;;;;;;;8.90;4.75;;;-0.30;99.90;;;;;;5012083;28;20782;-54
2021/01/15 04:40:13;;;;;;;7.60;4.30;;;-0.30;99.90;;;;;;5011089;28;20431;-54
2021/01/15 04:42:41;;;;;;;10.85;5.20;;;-0.30;99.90;;;;;;5011999;28;20436;-54
2021/01/15 04:45:12;;;;;;;11.95;6.00;;;1.00;99.90;;;;;;5010922;28;20385;-54
2021/01/15 04:47:42;;;;;;;13.23;7.13;;;-0.30;99.90;;;;;;5012002;28;20392;-54
2021/01/15 04:50:13;;;;;;;14.27;7.65;;;-0.30;99.90;;;;;;5011069;28;20389;-54
2021/01/15 04:52:47;;;;;;;13.52;6.70;;;-2.80;99.90;;;;;;5012085;28;20396;-54
2021/01/15 04:55:23;;;;;;;14.02;7.53;;;2.50;99.90;;;;;;5009094;28;20535;-54
2021/01/15 04:57:51;;;;;;;12.65;7.03;;;-0.50;99.90;;;;;;5011493;28;20997;-54
2021/01/15 05:00:20;;;;;;;9.23;5.63;;;-0.50;99.90;;;;;;5010549;28;20859;-54
2021/01/15 05:02:47;;;;;;;9.27;5.20;;;-0.50;99.90;;;;;;5010420;28;20796;-54
2021/01/15 05:05:24;;;;;;;12.43;6.07;;;-0.60;99.90;;;;;;5010615;28;20417;-54
2021/01/15 05:08:11;;;;;;;8.65;5.13;;;-0.60;99.90;;;;;;5011752;28;20420;-54
2021/01/15 05:10:41;;;;;;;11.80;5.15;;;-0.70;99.90;;;;;;5010464;28;20393;-54
2021/01/15 05:13:09;;;;;;;9.45;4.43;;;-0.70;99.90;;;;;;5007959;28;20415;-54
2021/01/15 05:15:42;;;;;;;10.95;4.72;;;-0.70;99.90;;;;;;5009457;28;20393;-54
2021/01/15 05:18:08;;;;;;;10.80;4.95;;;-0.80;99.90;;;;;;5009180;28;20388;-54
2021/01/15 05:20:35;;;;;;;10.70;5.10;;;-0.80;99.90;;;;;;5010807;28;20908;-54
2021/01/15 05:23:05;;;;;;;10.52;5.40;;;-0.70;99.90;;;;;;5010543;28;20455;-54
2021/01/15 05:25:32;;;;;;;12.10;5.53;;;-0.60;99.90;;;;;;5011234;28;20842;-54
2021/01/15 05:27:58;;;;;;;8.85;5.30;;;2.20;99.90;;;;;;5009019;28;20425;-54
2021/01/15 05:30:25;;;;;;;9.10;5.40;;;-0.80;99.90;;;;;;5010939;28;20439;-54
2021/01/15 05:32:52;;;;;;;12.33;5.97;;;-0.80;99.90;;;;;;5011076;28;20396;-54
2021/01/15 05:35:20;;;;;;;9.88;5.53;;;-0.70;99.90;;;;;;5010727;28;20476;-54
2021/01/15 05:37:57;;;;;;;11.82;5.68;;;1.00;99.90;;;;;;5011008;28;20472;-54
2021/01/15 05:40:40;;;;;;;10.67;5.37;;;-0.80;99.90;;;;;;5003875;28;20467;-54
2021/01/15 05:43:06;;;;;;;15.32;5.20;;;-0.80;99.90;;;;;;4997997;28;20818;-54
2021/01/15 05:45:33;;;;;;;12.55;5.82;;;-0.90;99.90;;;;;;5005375;28;20749;-54
2021/01/15 05:47:59;;;;;;;9.20;5.50;;;-0.80;99.90;;;;;;5006032;28;20396;-54
2021/01/15 05:50:39;;;;;;;11.77;5.70;;;-0.90;99.90;;;;;;4990798;28;20412;-54
2021/01/15 05:53:04;;;;;;;10.73;5.78;;;-0.90;99.90;;;;;;5007204;28;20390;-54
2021/01/15 05:55:30;;;;;;;11.87;5.90;;;2.00;99.90;;;;;;5010602;28;20393;-54
2021/01/15 05:57:56;;;;;;;12.03;5.60;;;-1.00;99.90;;;;;;5008338;28;21763;-54
2021/01/15 06:00:24;;;;;;;10.35;5.20;;;-1.00;99.90;;;;;;5009942;28;20413;-54
2021/01/15 06:02:50;;;;;;;14.43;5.95;;;-1.10;99.90;;;;;;5010741;28;20476;-54
2021/01/15 06:05:18;;;;;;;10.70;5.60;;;-1.00;99.90;;;;;;5008928;28;20389;-54
2021/01/15 06:07:44;;;;;;;13.25;6.10;;;-1.00;99.90;;;;;;5010587;28;20928;-54
2021/01/15 06:10:10;;;;;;;10.10;5.60;;;-1.00;99.90;;;;;;5005029;28;20511;-54
2021/01/15 06:12:42;;;;;;;12.85;6.05;;;-1.00;99.90;;;;;;4998887;28;20384;-54
2021/01/15 06:15:08;;;;;;;13.50;6.07;;;-1.00;99.90;;;;;;5007682;28;21006;-54
2021/01/15 06:17:38;;;;;;;11.03;5.93;;;-1.10;99.90;;;;;;5010385;28;20484;-54
2021/01/15 06:20:04;;;;;;;12.43;6.07;;;-1.10;99.90;;;;;;5003447;28;20421;-54
2021/01/15 06:22:49;;;;;;;12.65;6.20;;;-1.10;99.90;;;;;;5008168;28;20432;-54
2021/01/15 06:25:32;;;;;;;13.48;6.70;;;-1.20;99.90;;;;;;4997000;28;20393;-53
2021/01/15 06:28:03;;;;;;;12.73;6.60;;;-1.10;99.90;;;;;;5003649;28;20408;-52
2021/01/15 06:30:36;;;;;;;12.88;6.30;;;0.70;99.90;;;;;;5008631;28;20401;-53
2021/01/15 06:33:13;;;;;;;13.70;6.75;;;-1.20;99.90;;;;;;5007392;28;20492;-54
2021/01/15 06:35:44;;;;;;;14.25;7.20;;;-1.10;99.90;;;;;;5009734;28;20395;-54
2021/01/15 06:38:15;;;;;;;14.68;7.80;;;1.30;99.90;;;;;;5008692;28;20739;-54
2021/01/15 06:40:49;;;;;;;13.95;7.38;;;-1.20;99.90;;;;;;5009088;28;20456;-54
2021/01/15 06:43:30;;;;;;;13.63;7.80;;;-1.10;99.90;;;;;;5001220;28;20393;-54
2021/01/15 06:46:01;;;;;;;14.77;7.50;;;-1.10;99.90;;;;;;5006415;28;20412;-54
2021/01/15 06:48:36;;;;;;;13.68;7.65;;;-1.10;99.90;;;;;;5009516;28;20456;-52
2021/01/15 06:51:06;;;;;;;14.30;7.57;;;-1.10;99.90;;;;;;5008904;28;20393;-52
2021/01/15 06:53:38;;;;;;;14.40;8.05;;;-1.20;99.90;;;;;;5008311;28;20399;-54
2021/01/15 06:56:05;;;;;;;13.80;7.50;;;1.40;99.90;;;;;;5001677;28;20447;-52
2021/01/15 06:58:41;;;;;;;13.45;7.13;;;-1.20;99.90;;;;;;5008362;28;20409;-53
2021/01/15 07:01:22;;;;;;;16.17;8.00;;;-1.20;99.90;;;;;;5002728;28;20426;-53
2021/01/15 07:03:51;;;;;;;19.48;8.02;;;0.70;99.90;;;;;;5003531;28;20466;-53
2021/01/15 07:06:29;;;;;;;17.83;9.45;;;-1.20;99.90;;;;;;5007394;28;20435;-53
2021/01/15 07:08:55;;;;;;;14.65;8.60;;;-1.20;99.90;;;;;;5007596;28;20890;-52
2021/01/15 07:11:25;;;;;;;16.20;8.02;;;-0.90;99.90;;;;;;5003312;28;20408;-55
2021/01/15 07:13:59;;;;;;;16.92;8.85;;;-1.10;99.90;;;;;;5000540;28;20472;-55
2021/01/15 07:16:39;;;;;;;20.33;10.90;;;-1.10;99.90;;;;;;5005323;28;20408;-55
2021/01/15 07:19:10;;;;;;;17.77;9.80;;;-1.10;99.90;;;;;;5005737;28;20480;-55
2021/01/15 07:21:38;;;;;;;24.35;10.50;;;-1.10;99.90;;;;;;5008810;28;20886;-55
2021/01/15 07:24:11;;;;;;;20.20;9.93;;;-1.00;99.90;;;;;;5012394;28;20720;-55
2021/01/15 07:26:40;;;;;;;16.83;8.80;;;-1.00;99.90;;;;;;5009595;28;20875;-55
2021/01/15 07:29:13;;;;;;;17.02;9.80;;;-1.00;99.90;;;;;;5007498;28;20976;-55
2021/01/15 07:31:40;;;;;;;16.42;9.75;;;-0.90;99.90;;;;;;5006862;28;20432;-55
2021/01/15 07:34:12;;;;;;;15.10;8.63;;;1.70;99.90;;;;;;5008692;28;20495;-55
2021/01/15 07:36:39;;;;;;;17.17;9.00;;;-0.80;99.90;;;;;;5011290;28;20488;-55
2021/01/15 07:39:12;;;;;;;17.65;10.30;;;-0.70;99.90;;;;;;5010702;28;20491;-55
2021/01/15 07:41:39;;;;;;;18.38;9.25;;;0.30;99.90;;;;;;5008229;28;20416;-55
2021/01/15 07:44:23;;;;;;;18.23;10.30;;;-0.60;99.90;;;;;;5007183;28;20393;-55
2021/01/15 07:46:50;;;;;;;17.77;9.77;;;-0.50;99.90;;;;;;5009929;28;20491;-55
2021/01/15 07:49:16;;;;;;;20.55;10.20;;;-0.50;99.90;;;;;;5008190;28;20550;-55
2021/01/15 07:51:42;;;;;;;18.77;9.85;;;-0.50;99.90;;;;;;5010478;28;20480;-55
2021/01/15 07:54:08;;;;;;;20.13;10.15;;;-0.40;99.90;;;;;;5010708;28;20389;-55
2021/01/15 07:56:33;;;;;;;18.93;10.00;;;-0.50;99.90;;;;;;5010957;28;20451;-55
2021/01/15 07:58:59;;;;;;;18.70;9.90;;;1.90;99.90;;;;;;5008857;28;20404;-55
2021/01/15 08:01:25;;;;;;;16.83;9.45;;;-0.30;99.90;;;;;;5011054;28;20443;-55
2021/01/15 08:03:53;;;;;;;18.17;9.88;;;2.40;99.90;;;;;;5008455;28;20764;-55
2021/01/15 08:06:20;;;;;;;16.80;10.00;;;-0.30;99.90;;;;;;5008479;28;20409;-55
2021/01/15 08:08:59;;;;;;;17.40;9.55;;;-0.20;99.90;;;;;;5010935;28;20381;-55
2021/01/15 08:11:25;;;;;;;17.95;9.40;;;1.40;99.90;;;;;;5010632;28;20422;-55
2021/01/15 08:14:10;;;;;;;18.55;10.50;;;-0.10;99.90;;;;;;5000611;28;20416;-56
2021/01/15 08:16:37;;;;;;;19.30;9.80;;;0.00;99.90;;;;;;5009145;28;20401;-55
2021/01/15 08:19:10;;;;;;;19.10;10.50;;;0.20;99.90;;;;;;5008941;28;20407;-55
2021/01/15 08:21:36;;;;;;;20.35;10.27;;;0.40;99.90;;;;;;5008668;28;20419;-55
2021/01/15 08:24:05;;;;;;;18.40;10.05;;;0.40;99.90;;;;;;5004692;28;20437;-55
2021/01/15 08:26:35;;;;;;;19.02;10.15;;;0.50;99.90;;;;;;5006894;28;20418;-55
2021/01/15 08:29:03;;;;;;;17.67;9.93;;;2.50;99.90;;;;;;5003413;28;20396;-55
2021/01/15 08:31:29;;;;;;;17.05;9.43;;;0.60;99.90;;;;;;5006514;28;20404;-55
2021/01/15 08:34:08;;;;;;;17.25;9.35;;;0.70;99.90;;;;;;5004932;28;20401;-55
2021/01/15 08:36:37;;;;;;;17.85;9.20;;;3.10;99.90;;;;;;5008823;28;20397;-55
2021/01/15 08:39:04;;;;;;;16.40;9.88;;;0.80;99.90;;;;;;5008631;28;20409;-55
2021/01/15 08:41:29;;;;;;;16.13;9.80;;;0.70;99.90;;;;;;5010935;28;20482;-55
2021/01/15 08:43:56;;;;;;;17.77;10.17;;;-1.60;99.90;;;;;;5003602;28;20442;-55
2021/01/15 08:46:24;;;;;;;15.80;9.20;;;1.90;99.90;;;;;;5002209;28;20432;-53
2021/01/15 08:48:50;;;;;;;15.93;9.63;;;2.30;99.90;;;;;;5006751;28;20421;-52
2021/01/15 08:51:19;;;;;;;15.55;8.80;;;3.10;99.90;;;;;;5004824;28;20412;-55
2021/01/15 08:54:08;;;;;;;15.88;9.25;;;4.10;99.90;;;;;;4999386;28;20504;-55
2021/01/15 08:56:42;;;;;;;15.55;8.90;;;4.80;99.90;;;;;;5007199;28;20432;-55
2021/01/15 08:59:25;;;;;;;17.75;9.52;;;5.50;99.90;;;;;;5007274;28;20393;-55
2021/01/15 09:01:56;;;;;;;14.63;8.68;;;6.00;99.90;;;;;;5008606;28;20423;-55
2021/01/15 09:04:24;;;;;;;21.85;11.68;;;6.60;99.90;;;;;;5008765;28;20488;-55
2021/01/15 09:06:56;;;;;;;31.67;15.05;;;6.50;99.70;;;;;;5004073;28;20442;-55
2021/01/15 09:09:23;;;;;;;27.98;12.82;;;6.60;99.10;;;;;;5003973;28;20763;-53
2021/01/15 09:11:52;;;;;;;20.08;10.05;;;7.00;98.80;;;;;;5000696;28;20523;-52
2021/01/15 09:14:24;;;;;;;15.43;9.95;;;7.10;97.90;;;;;;4996752;28;20580;-53
2021/01/15 09:16:53;;;;;;;18.98;10.70;;;7.20;98.00;;;;;;4999659;28;20393;-53
2021/01/15 09:19:18;;;;;;;15.88;10.13;;;8.10;96.20;;;;;;5006694;28;20606;-53
2021/01/15 09:21:52;;;;;;;14.23;9.55;;;8.90;93.90;;;;;;5005551;28;20917;-53
2021/01/15 09:24:22;;;;;;;18.80;11.30;;;9.80;90.90;;;;;;5006264;28;20483;-53
2021/01/15 09:26:53;;;;;;;21.75;12.43;;;9.20;91.20;;;;;;5006725;28;20420;-55
2021/01/15 09:29:19;;;;;;;26.43;14.50;;;10.20;90.00;;;;;;5004851;28;20417;-56
2021/01/15 09:31:45;;;;;;;24.13;14.20;;;10.30;82.30;;;;;;5008195;28;20454;-53
2021/01/15 09:34:12;;;;;;;16.03;10.13;;;10.10;81.60;;;;;;5002911;28;20466;-53
2021/01/15 09:36:41;;;;;;;17.52;11.77;;;9.30;85.30;;;;;;5006735;28;20929;-55
2021/01/15 09:39:06;;;;;;;17.55;10.50;;;10.10;83.50;;;;;;5006377;28;20508;-56
2021/01/15 09:41:32;;;;;;;16.53;10.10;;;10.70;79.30;;;;;;5005891;28;20611;-56
2021/01/15 09:43:58;;;;;;;17.75;11.80;;;10.80;77.60;;;;;;5001112;28;20423;-53
2021/01/15 09:46:25;;;;;;;17.87;10.97;;;10.00;77.80;;;;;;5005150;28;20435;-53
2021/01/15 09:48:52;;;;;;;17.23;10.55;;;9.20;83.00;;;;;;5007124;28;20443;-53
2021/01/15 09:51:23;;;;;;;20.00;11.15;;;9.40;82.60;;;;;;5007302;28;20484;-53
2021/01/15 09:53:49;;;;;;;16.52;11.25;;;9.30;82.70;;;;;;5006773;28;20404;-53
2021/01/15 09:56:27;;;;;;;16.13;10.33;;;9.00;83.40;;;;;;5006299;28;20404;-53
2021/01/15 09:58:57;;;;;;;15.98;10.95;;;9.00;84.90;;;;;;5006029;28;20430;-53
2021/01/15 10:01:27;;;;;;;19.27;11.68;;;9.40;82.40;;;;;;5004011;28;20462;-53
2021/01/15 10:03:55;;;;;;;19.85;11.13;;;8.50;85.90;;;;;;5008064;28;20398;-53
2021/01/15 10:06:22;;;;;;;17.00;10.30;;;8.40;85.50;;;;;;5006254;28;20432;-53
2021/01/15 10:08:48;;;;;;;21.00;11.60;;;7.70;88.60;;;;;;5005700;28;20393;-53
2021/01/15 10:11:40;;;;;;;18.90;11.25;;;7.70;90.20;;;;;;5004679;28;20855;-55
2021/01/15 10:14:09;;;;;;;15.05;9.93;;;7.50;89.40;;;;;;4997921;28;20507;-56
2021/01/15 10:16:49;;;;;;;16.25;10.20;;;7.10;90.80;;;;;;5004251;28;20410;-55
2021/01/15 10:19:16;;;;;;;17.45;10.55;;;7.20;91.50;;;;;;5002422;28;20404;-55
2021/01/15 10:21:42;;;;;;;16.47;11.17;;;6.90;92.20;;;;;;5005988;28;20433;-55
2021/01/15 10:24:09;;;;;;;15.70;10.27;;;7.30;92.10;;;;;;5004820;28;20400;-53
2021/01/15 10:26:36;;;;;;;16.30;10.30;;;7.90;91.20;;;;;;5005506;28;20447;-53
2021/01/15 10:29:07;;;;;;;15.15;9.80;;;8.30;90.00;;;;;;5006718;28;20393;-53
2021/01/15 10:31:34;;;;;;;16.00;10.17;;;7.80;90.30;;;;;;5008453;28;20401;-53
2021/01/15 10:34:02;;;;;;;15.00;9.25;;;8.10;90.30;;;;;;5006304;28;20417;-53
2021/01/15 10:36:28;;;;;;;15.95;9.43;;;8.60;88.20;;;;;;5006635;28;20413;-53
2021/01/15 10:38:54;;;;;;;17.70;10.48;;;9.30;86.50;;;;;;5006512;28;20413;-53
2021/01/15 10:41:31;;;;;;;18.87;10.50;;;8.80;87.60;;;;;;5004757;28;20436;-53
2021/01/15 10:44:01;;;;;;;16.80;10.50;;;8.20;89.40;;;;;;4999988;28;20874;-56
2021/01/15 10:46:38;;;;;;;17.15;9.63;;;7.70;91.90;;;;;;5001554;28;20401;-53
2021/01/15 10:49:09;;;;;;;18.05;9.70;;;8.10;91.10;;;;;;5004803;28;20419;-53
2021/01/15 10:51:34;;;;;;;19.25;11.60;;;8.80;90.10;;;;;;5006524;28;20918;-53
2021/01/15 10:54:01;;;;;;;16.53;9.73;;;9.20;88.10;;;;;;5005119;28;20590;-53
2021/01/15 10:56:40;;;;;;;16.73;9.90;;;8.40;90.00;;;;;;5010765;28;20511;-53
2021/01/15 10:59:07;;;;;;;16.30;10.20;;;8.20;90.60;;;;;;5009705;28;20439;-53
2021/01/15 11:01:53;;;;;;;17.90;10.35;;;8.40;90.20;;;;;;5008248;28;20437;-53
2021/01/15 11:04:20;;;;;;;16.10;9.90;;;8.40;90.40;;;;;;5006009;28;20618;-53
2021/01/15 11:06:53;;;;;;;16.87;9.73;;;8.60;90.40;;;;;;5008537;28;20408;-53
2021/01/15 11:09:21;;;;;;;17.27;9.70;;;8.50;90.80;;;;;;5006402;28;20397;-53
2021/01/15 11:11:48;;;;;;;18.53;10.80;;;8.30;91.00;;;;;;4997544;28;20396;-53
2021/01/15 11:14:23;;;;;;;16.25;9.60;;;8.00;91.50;;;;;;5005985;28;20424;-53
2021/01/15 11:16:49;;;;;;;15.65;9.48;;;8.30;91.20;;;;;;5010770;28;20431;-53
2021/01/15 11:19:15;;;;;;;17.03;9.80;;;8.20;91.00;;;;;;5006012;28;20440;-53
2021/01/15 11:21:41;;;;;;;16.48;9.93;;;8.20;91.00;;;;;;5010728;28;21751;-53
2021/01/15 11:24:07;;;;;;;15.27;9.60;;;7.80;92.10;;;;;;5004580;28;20404;-56
2021/01/15 11:26:33;;;;;;;17.50;9.70;;;7.70;92.00;;;;;;5011171;28;20475;-53
2021/01/15 11:29:01;;;;;;;16.67;9.27;;;8.00;91.30;;;;;;5008039;28;20436;-55
2021/01/15 11:31:27;;;;;;;16.40;10.10;;;8.00;91.00;;;;;;5010660;28;20412;-53
2021/01/15 11:33:54;;;;;;;14.90;8.98;;;7.90;91.30;;;;;;5009941;28;20443;-55
2021/01/15 11:36:20;;;;;;;15.07;8.50;;;7.40;91.40;;;;;;5009362;28;20403;-56
2021/01/15 11:38:46;;;;;;;14.13;8.60;;;7.00;92.30;;;;;;5010876;28;20385;-55
2021/01/15 11:41:14;;;;;;;16.50;9.90;;;6.70;93.00;;;;;;5009449;28;20483;-55
2021/01/15 11:43:41;;;;;;;14.70;9.20;;;6.30;95.20;;;;;;5002524;28;20411;-56
2021/01/15 11:46:07;;;;;;;15.57;8.90;;;5.90;94.50;;;;;;5009681;28;20397;-54
2021/01/15 11:48:34;;;;;;;16.50;10.20;;;5.30;98.10;;;;;;5008955;28;20405;-53
2021/01/15 11:51:01;;;;;;;15.85;9.20;;;5.80;98.40;;;;;;5010164;28;20435;-53
2021/01/15 11:53:32;;;;;;;17.25;10.05;;;5.20;99.00;;;;;;5009824;28;20423;-54
2021/01/15 11:55:59;;;;;;;17.98;10.55;;;5.40;98.50;;;;;;5010608;28;20383;-53
2021/01/15 11:58:25;;;;;;;19.02;9.70;;;5.20;99.90;;;;;;5009846;28;20467;-54
2021/01/15 12:00:50;;;;;;;17.60;9.20;;;5.00;99.90;;;;;;5010270;28;20514;-54
2021/01/15 12:03:16;;;;;;;17.70;10.73;;;5.00;99.90;;;;;;5009603;28;21219;-54
2021/01/15 12:05:43;;;;;;;17.95;11.15;;;5.20;99.90;;;;;;5021111;28;20861;-53
2021/01/15 12:08:09;;;;;;;18.02;10.88;;;5.40;99.90;;;;;;5010029;28;20408;-54
2021/01/15 12:10:35;;;;;;;18.00;10.63;;;5.20;99.90;;;;;;5010521;28;20397;-54
2021/01/15 12:13:00;;;;;;;18.42;11.02;;;5.10;99.90;;;;;;5004583;28;20413;-54
2021/01/15 12:15:26;;;;;;;17.85;10.70;;;4.10;99.90;;;;;;5010091;28;20831;-54
2021/01/15 12:17:52;;;;;;;19.20;11.50;;;5.00;99.90;;;;;;5010367;28;20488;-53
2021/01/15 12:20:18;;;;;;;22.67;11.35;;;5.00;99.90;;;;;;5009759;28;21054;-54
2021/01/15 12:22:44;;;;;;;20.13;11.80;;;4.80;99.90;;;;;;5010664;28;20463;-53
2021/01/15 12:25:11;;;;;;;19.52;11.40;;;4.70;99.90;;;;;;5010412;28;20389;-53
2021/01/15 12:27:37;;;;;;;19.13;11.10;;;4.90;99.90;;;;;;5011806;28;20381;-54
2021/01/15 12:30:04;;;;;;;18.88;10.95;;;5.00;99.90;;;;;;5009363;28;20408;-53
2021/01/15 12:32:30;;;;;;;18.17;11.00;;;5.10;99.90;;;;;;5008827;28;20474;-53
2021/01/15 12:34:55;;;;;;;19.23;10.83;;;4.60;99.90;;;;;;4999425;28;20809;-54
2021/01/15 12:37:27;;;;;;;20.10;11.95;;;4.80;99.90;;;;;;5004764;28;20403;-54
2021/01/15 12:39:54;;;;;;;19.95;10.45;;;4.70;99.90;;;;;;5005272;28;20436;-54
2021/01/15 12:42:20;;;;;;;18.08;10.63;;;4.60;99.90;;;;;;5000059;28;21042;-53
2021/01/15 12:44:46;;;;;;;20.08;11.68;;;4.70;99.90;;;;;;5004139;28;20405;-53
2021/01/15 12:47:12;;;;;;;21.80;12.18;;;6.30;99.90;;;;;;5008678;28;20450;-53
2021/01/15 12:49:37;;;;;;;20.90;12.20;;;4.70;99.90;;;;;;5004201;28;20484;-54
2021/01/15 12:52:03;;;;;;;22.67;11.80;;;4.50;99.90;;;;;;5001665;28;20874;-53
2021/01/15 12:54:29;;;;;;;19.95;11.35;;;4.60;99.90;;;;;;5008323;28;20397;-53